Terminal Aerodrome Forecast
Issued by NWS

Home | Current Version | Previous Version | Text Only | Print | Product List | Glossary On
Versions: 1 2 3 4 5 6 7 8 9 10 11 12 13
000
FTUS45 KVEF 171100
TAFBIH
TAF
KBIH 171120Z 1712/1812 34008KT P6SM SKC
     FM171500 VRB05KT P6SM SCT250
     FM172100 17016G26KT P6SM FEW120 SCT250
     FM180200 17011KT P6SM BKN200
     FM180600 01007KT P6SM BKN200=

USA.gov is the U.S. government's official web portal to all federal, state and local government web resources and services.